Time;durP1;ratioP1;P1;durP2;ratioP2;P2;SDS_P1;SDS_P2;PMS_P1;PMS_P2;Temp;Humidity;BMP_temperature;BMP_pressure;BME280_temperature;BME280_humidity;BME280_pressure;Samples;Min_cycle;Max_cycle;Signal;HPM_P1;HPM_P2
2022/11/05 00:10:22;;;;;;;;;;;;;;;;;;5113105;28;2441;-43
2022/11/05 00:18:22;;;;;;;;;;;;;;;;;;5112383;28;2000;-45
2022/11/05 00:20:49;;;;;;;;;;;;;;;;;;5112482;28;2020;-48
2022/11/05 00:26:05;;;;;;;;;;;;;;;;;;5113017;28;2026;-45
2022/11/05 00:28:34;;;;;;;;;;;;;;;;;;5113019;28;2060;-45
2022/11/05 00:31:05;;;;;;;;;;;;;;;;;;5112806;28;1647;-42
2022/11/05 00:33:32;;;;;;;;;;;;;;;;;;5113077;28;1939;-44
2022/11/05 00:36:01;;;;;;;;;;;;;;;;;;5112569;28;1405;-45
2022/11/05 00:38:29;;;;;;;;;;;;;;;;;;5112325;28;1951;-44
2022/11/05 00:40:56;;;;;;;;;;;;;;;;;;5112352;28;1918;-44
2022/11/05 00:46:10;;;;;;;;;;;;;;;;;;5112188;28;1905;-45
2022/11/05 00:51:23;;;;;;;;;;;;;;;;;;5101525;28;1969;-45
2022/11/05 00:53:50;;;;;;;;;;;;;;;;;;5091984;28;1932;-44
2022/11/05 00:56:18;;;;;;;;;;;;;;;;;;5091522;28;1467;-44
2022/11/05 00:58:45;;;;;;;;;;;;;;;;;;5102214;28;1929;-46
2022/11/05 01:01:12;;;;;;;;;;;;;;;;;;5112283;28;2171;-45
2022/11/05 01:03:39;;;;;;;;;;;;;;;;;;5112401;27;1457;-44
2022/11/05 01:06:11;;;;;;;;;;;;;;;;;;5112065;28;2122;-45
2022/11/05 01:08:39;;;;;;;;;;;;;;;;;;5112043;28;1789;-45
2022/11/05 01:11:09;;;;;;;;;;;;;;;;;;5112377;28;2126;-44
2022/11/05 01:13:37;;;;;;;;;;;;;;;;;;5111727;28;2022;-45
2022/11/05 01:16:07;;;;;;;;;;;;;;;;;;5111627;28;1659;-48
2022/11/05 01:18:35;;;;;;;;;;;;;;;;;;5111795;28;2161;-47
2022/11/05 01:21:13;;;;;;;;;;;;;;;;;;5111515;28;1890;-45
2022/11/05 01:23:40;;;;;;;;;;;;;;;;;;5111906;28;2119;-47
2022/11/05 01:26:08;;;;;;;;;;;;;;;;;;5112057;28;2165;-46
2022/11/05 01:28:35;;;;;;;;;;;;;;;;;;5110559;28;1861;-45
2022/11/05 01:31:02;;;;;;;;;;;;;;;;;;5111545;28;1688;-43
2022/11/05 01:33:30;;;;;;;;;;;;;;;;;;5111542;28;1895;-46
2022/11/05 01:35:57;;;;;;;;;;;;;;;;;;5111705;28;1745;-45
2022/11/05 01:38:25;;;;;;;;;;;;;;;;;;5111579;28;1955;-44
2022/11/05 01:40:52;;;;;;;;;;;;;;;;;;5111356;28;2108;-45
2022/11/05 01:43:22;;;;;;;;;;;;;;;;;;5111640;28;1299;-46
2022/11/05 01:45:53;;;;;;;;;;;;;;;;;;5102118;28;1807;-43
2022/11/05 01:48:23;;;;;;;;;;;;;;;;;;5091014;28;1972;-45
2022/11/05 01:50:57;;;;;;;;;;;;;;;;;;5091014;28;1919;-45
2022/11/05 01:53:36;;;;;;;;;;;;;;;;;;5091393;28;1984;-44
2022/11/05 01:56:08;;;;;;;;;;;;;;;;;;5091004;28;1770;-46
2022/11/05 01:58:41;;;;;;;;;;;;;;;;;;5091028;28;2288;-45
2022/11/05 02:01:08;;;;;;;;;;;;;;;;;;5091168;28;1985;-42
2022/11/05 02:03:36;;;;;;;;;;;;;;;;;;5090913;28;2082;-49
2022/11/05 02:06:03;;;;;;;;;;;;;;;;;;5091091;28;2329;-46
2022/11/05 02:08:30;;;;;;;;;;;;;;;;;;5090929;28;2495;-43
2022/11/05 02:10:58;;;;;;;;;;;;;;;;;;5091055;28;1396;-46
2022/11/05 02:13:26;;;;;;;;;;;;;;;;;;5096727;28;1290;-45
2022/11/05 02:15:56;;;;;;;;;;;;;;;;;;5111470;28;1975;-46
2022/11/05 02:18:36;;;;;;;;;;;;;;;;;;5111578;28;2232;-46
2022/11/05 02:21:21;;;;;;;;;;;;;;;;;;5111003;28;1958;-48
2022/11/05 02:24:17;;;;;;;;;;;;;;;;;;5110955;28;1801;-44
2022/11/05 02:27:01;;;;;;;;;;;;;;;;;;5111042;28;1589;-45
2022/11/05 02:29:47;;;;;;;;;;;;;;;;;;5105116;28;1783;-46
2022/11/05 02:32:20;;;;;;;;;;;;;;;;;;5090807;28;1718;-45
2022/11/05 02:34:52;;;;;;;;;;;;;;;;;;5089497;28;2041;-45
2022/11/05 02:37:39;;;;;;;;;;;;;;;;;;5090785;28;1650;-45
2022/11/05 02:40:14;;;;;;;;;;;;;;;;;;5090512;28;1966;-45
2022/11/05 02:42:54;;;;;;;;;;;;;;;;;;5094708;28;1575;-45
2022/11/05 02:45:25;;;;;;;;;;;;;;;;;;5094413;28;1332;-45
2022/11/05 02:47:55;;;;;;;;;;;;;;;;;;5094197;28;1530;-44
2022/11/05 02:50:25;;;;;;;;;;;;;;;;;;5093974;28;2026;-44
2022/11/05 02:53:11;;;;;;;;;;;;;;;;;;5110181;28;2002;-45
2022/11/05 02:55:41;;;;;;;;;;;;;;;;;;5113458;28;1560;-44
2022/11/05 02:58:09;;;;;;;;;;;;;;;;;;5114427;28;1857;-45
2022/11/05 03:00:53;;;;;;;;;;;;;;;;;;5114376;28;2347;-43
2022/11/05 03:03:26;;;;;;;;;;;;;;;;;;5114335;28;2337;-45
2022/11/05 03:06:28;;;;;;;;;;;;;;;;;;5114064;28;1926;-44
2022/11/05 03:08:56;;;;;;;;;;;;;;;;;;5111686;28;1658;-46
2022/11/05 03:11:25;;;;;;;;;;;;;;;;;;5113779;28;2170;-44
2022/11/05 03:13:52;;;;;;;;;;;;;;;;;;5114125;28;2344;-45
2022/11/05 03:16:42;;;;;;;;;;;;;;;;;;5114038;28;2133;-45
2022/11/05 03:19:12;;;;;;;;;;;;;;;;;;5113409;28;1957;-45
2022/11/05 03:21:42;;;;;;;;;;;;;;;;;;5113942;28;2094;-45
2022/11/05 03:24:16;;;;;;;;;;;;;;;;;;5113821;28;2441;-45
2022/11/05 03:26:47;;;;;;;;;;;;;;;;;;5114057;28;2041;-47
2022/11/05 03:29:26;;;;;;;;;;;;;;;;;;5114071;27;1816;-45
2022/11/05 03:31:55;;;;;;;;;;;;;;;;;;5113941;28;2184;-44
2022/11/05 03:34:25;;;;;;;;;;;;;;;;;;5113918;28;1818;-45
2022/11/05 03:36:54;;;;;;;;;;;;;;;;;;5113721;28;1856;-45
2022/11/05 03:39:29;;;;;;;;;;;;;;;;;;5113491;28;1473;-45
2022/11/05 03:41:57;;;;;;;;;;;;;;;;;;5113437;28;2127;-46
2022/11/05 03:44:27;;;;;;;;;;;;;;;;;;5113514;28;2433;-44
2022/11/05 03:46:58;;;;;;;;;;;;;;;;;;5113425;28;2013;-45
2022/11/05 03:49:28;;;;;;;;;;;;;;;;;;5113391;28;1887;-47
2022/11/05 03:52:02;;;;;;;;;;;;;;;;;;5097272;28;1973;-47
2022/11/05 03:54:29;;;;;;;;;;;;;;;;;;5093062;28;1916;-45
2022/11/05 03:57:15;;;;;;;;;;;;;;;;;;5092964;28;2070;-45
2022/11/05 03:59:46;;;;;;;;;;;;;;;;;;5092797;28;1900;-45
2022/11/05 04:02:15;;;;;;;;;;;;;;;;;;5092631;28;1964;-46
2022/11/05 04:04:42;;;;;;;;;;;;;;;;;;5092776;28;1581;-45
2022/11/05 04:15:28;;;;;;;;;;;;;;;;;;5092471;28;1270;-47
2022/11/05 04:17:57;;;;;;;;;;;;;;;;;;5092572;28;1875;-45
2022/11/05 04:25:59;;;;;;;;;;;;;;;;;;5092047;28;2005;-46
2022/11/05 04:30:17;;;;;;;;;;;;;;;;;;5092512;28;1917;-46
2022/11/05 04:31:13;;;;;;;;;;;;;;;;;;5092258;28;1636;-45
2022/11/05 04:33:40;;;;;;;;;;;;;;;;;;5092360;28;2299;-46
2022/11/05 04:36:08;;;;;;;;;;;;;;;;;;5092554;28;1951;-47
2022/11/05 04:38:35;;;;;;;;;;;;;;;;;;5090699;28;1798;-47
2022/11/05 04:41:12;;;;;;;;;;;;;;;;;;5091985;28;1908;-46
2022/11/05 04:43:40;;;;;;;;;;;;;;;;;;5091856;28;1742;-48
2022/11/05 04:46:07;;;;;;;;;;;;;;;;;;5092083;28;1649;-45
2022/11/05 04:48:34;;;;;;;;;;;;;;;;;;5091857;28;2538;-44
2022/11/05 04:51:02;;;;;;;;;;;;;;;;;;5099305;28;1844;-45
2022/11/05 04:53:29;;;;;;;;;;;;;;;;;;5112976;28;1946;-48
2022/11/05 04:56:15;;;;;;;;;;;;;;;;;;5112186;28;1953;-45
2022/11/05 04:58:43;;;;;;;;;;;;;;;;;;5112049;28;1661;-46
2022/11/05 05:01:14;;;;;;;;;;;;;;;;;;5111978;28;1910;-47
2022/11/05 05:03:41;;;;;;;;;;;;;;;;;;5112065;28;2020;-47
2022/11/05 05:06:09;;;;;;;;;;;;;;;;;;5110577;28;2272;-46
2022/11/05 05:08:36;;;;;;;;;;;;;;;;;;5112090;28;2030;-45
2022/11/05 05:11:07;;;;;;;;;;;;;;;;;;5112038;28;2180;-44
2022/11/05 05:13:34;;;;;;;;;;;;;;;;;;5111872;28;1740;-44
2022/11/05 05:16:06;;;;;;;;;;;;;;;;;;5112352;28;1825;-47
2022/11/05 05:18:33;;;;;;;;;;;;;;;;;;5111723;28;1647;-47
2022/11/05 05:23:47;;;;;;;;;;;;;;;;;;5111710;28;2056;-46
2022/11/05 05:26:15;;;;;;;;;;;;;;;;;;5111911;28;2000;-45
2022/11/05 05:28:42;;;;;;;;;;;;;;;;;;5111835;28;1829;-45
2022/11/05 05:31:09;;;;;;;;;;;;;;;;;;5111345;28;1910;-48
2022/11/05 05:33:36;;;;;;;;;;;;;;;;;;5111987;28;1946;-45
2022/11/05 05:36:03;;;;;;;;;;;;;;;;;;5111685;28;1950;-49
2022/11/05 05:38:36;;;;;;;;;;;;;;;;;;5111432;28;2099;-47
2022/11/05 05:41:03;;;;;;;;;;;;;;;;;;5111419;28;1917;-48
2022/11/05 05:43:31;;;;;;;;;;;;;;;;;;5111529;28;2674;-48
2022/11/05 05:46:02;;;;;;;;;;;;;;;;;;5111374;28;1978;-45
2022/11/05 05:48:29;;;;;;;;;;;;;;;;;;5111411;28;2002;-47
2022/11/05 05:51:00;;;;;;;;;;;;;;;;;;5105026;28;2295;-47
2022/11/05 05:53:28;;;;;;;;;;;;;;;;;;5091371;28;2379;-44
2022/11/05 05:55:55;;;;;;;;;;;;;;;;;;5091555;28;1751;-45
2022/11/05 05:58:25;;;;;;;;;;;;;;;;;;5091184;28;1962;-49
2022/11/05 06:00:52;;;;;;;;;;;;;;;;;;5090968;28;2013;-49
2022/11/05 06:03:20;;;;;;;;;;;;;;;;;;5091261;28;2005;-47
2022/11/05 06:05:46;;;;;;;;;;;;;;;;;;5091003;28;2279;-46
2022/11/05 06:08:13;;;;;;;;;;;;;;;;;;5091003;28;2026;-47
2022/11/05 06:10:41;;;;;;;;;;;;;;;;;;5090962;28;1646;-47
2022/11/05 06:13:08;;;;;;;;;;;;;;;;;;5090752;28;2083;-47
2022/11/05 06:15:35;;;;;;;;;;;;;;;;;;5092939;28;1873;-48
2022/11/05 06:18:02;;;;;;;;;;;;;;;;;;5094885;28;1825;-49
2022/11/05 06:20:29;;;;;;;;;;;;;;;;;;5094970;28;2103;-44
2022/11/05 06:22:56;;;;;;;;;;;;;;;;;;5094936;28;1914;-47
2022/11/05 06:25:24;;;;;;;;;;;;;;;;;;5094662;28;2053;-49
2022/11/05 06:27:52;;;;;;;;;;;;;;;;;;5094808;28;1990;-48
2022/11/05 06:30:20;;;;;;;;;;;;;;;;;;5094606;28;2496;-47
2022/11/05 06:32:47;;;;;;;;;;;;;;;;;;5094780;28;2040;-47
2022/11/05 06:35:14;;;;;;;;;;;;;;;;;;5094751;28;1790;-47
2022/11/05 06:37:41;;;;;;;;;;;;;;;;;;5093388;28;2024;-48
2022/11/05 06:40:09;;;;;;;;;;;;;;;;;;5094426;28;1807;-50
2022/11/05 06:42:36;;;;;;;;;;;;;;;;;;5094239;28;2002;-49
2022/11/05 06:45:05;;;;;;;;;;;;;;;;;;5094341;28;1939;-50
2022/11/05 06:47:32;;;;;;;;;;;;;;;;;;5094472;28;1508;-51
2022/11/05 06:50:00;;;;;;;;;;;;;;;;;;5094423;28;1753;-45
2022/11/05 06:52:30;;;;;;;;;;;;;;;;;;5113596;28;1887;-48
2022/11/05 06:54:57;;;;;;;;;;;;;;;;;;5114877;28;2069;-49
2022/11/05 06:57:24;;;;;;;;;;;;;;;;;;5114337;28;1677;-45
2022/11/05 06:59:51;;;;;;;;;;;;;;;;;;5114624;28;2125;-45
2022/11/05 07:02:22;;;;;;;;;;;;;;;;;;5114337;28;1921;-47
2022/11/05 07:04:50;;;;;;;;;;;;;;;;;;5114327;28;1712;-45
2022/11/05 07:07:17;;;;;;;;;;;;;;;;;;5114257;28;1740;-47
2022/11/05 07:09:44;;;;;;;;;;;;;;;;;;5114402;28;1944;-46
2022/11/05 07:12:11;;;;;;;;;;;;;;;;;;5114057;28;1944;-49
2022/11/05 07:14:38;;;;;;;;;;;;;;;;;;5114395;27;1725;-52
2022/11/05 07:17:06;;;;;;;;;;;;;;;;;;5114239;28;2108;-48
2022/11/05 07:19:33;;;;;;;;;;;;;;;;;;5113931;28;1971;-45
2022/11/05 07:22:00;;;;;;;;;;;;;;;;;;5114141;28;1982;-47
2022/11/05 07:24:27;;;;;;;;;;;;;;;;;;5114086;28;2220;-47
2022/11/05 07:26:54;;;;;;;;;;;;;;;;;;5112976;28;1855;-47
2022/11/05 07:29:21;;;;;;;;;;;;;;;;;;5113814;28;1662;-47
2022/11/05 07:31:48;;;;;;;;;;;;;;;;;;5113520;28;2090;-45
2022/11/05 07:34:16;;;;;;;;;;;;;;;;;;5113693;28;1999;-47
2022/11/05 07:36:43;;;;;;;;;;;;;;;;;;5113860;28;1925;-47
2022/11/05 07:39:10;;;;;;;;;;;;;;;;;;5113697;28;1716;-47
2022/11/05 07:41:37;;;;;;;;;;;;;;;;;;5113593;28;1905;-47
2022/11/05 07:44:05;;;;;;;;;;;;;;;;;;5114007;28;2120;-46
2022/11/05 07:46:32;;;;;;;;;;;;;;;;;;5113778;28;2065;-48
2022/11/05 07:48:59;;;;;;;;;;;;;;;;;;5113514;28;1899;-49
2022/11/05 07:51:26;;;;;;;;;;;;;;;;;;5102355;28;2072;-46
2022/11/05 07:53:53;;;;;;;;;;;;;;;;;;5108234;28;1561;-48
2022/11/05 07:56:20;;;;;;;;;;;;;;;;;;5113335;28;1823;-47
2022/11/05 07:58:48;;;;;;;;;;;;;;;;;;5113270;28;1614;-47
2022/11/05 08:01:15;;;;;;;;;;;;;;;;;;5113359;28;2177;-46
2022/11/05 08:03:43;;;;;;;;;;;;;;;;;;5110287;28;10428;-47
2022/11/05 08:06:10;;;;;;;;;;;;;;;;;;5112891;28;1390;-44
2022/11/05 08:08:37;;;;;;;;;;;;;;;;;;5112933;28;2154;-47
2022/11/05 08:11:05;;;;;;;;;;;;;;;;;;5113165;28;1901;-49
2022/11/05 08:13:33;;;;;;;;;;;;;;;;;;5112861;28;1446;-47
2022/11/05 08:16:00;;;;;;;;;;;;;;;;;;5112756;28;2055;-47
2022/11/05 08:18:32;;;;;;;;;;;;;;;;;;5112745;28;1477;-48
2022/11/05 08:21:03;;;;;;;;;;;;;;;;;;5113153;28;1895;-49
2022/11/05 08:23:30;;;;;;;;;;;;;;;;;;5112629;28;2148;-45
2022/11/05 08:25:58;;;;;;;;;;;;;;;;;;5112712;28;2121;-46
2022/11/05 08:28:25;;;;;;;;;;;;;;;;;;5112668;28;2096;-49
2022/11/05 08:30:54;;;;;;;;;;;;;;;;;;5112771;28;1850;-48
2022/11/05 08:33:21;;;;;;;;;;;;;;;;;;5112270;28;1780;-47
2022/11/05 08:35:49;;;;;;;;;;;;;;;;;;5112597;28;1983;-45
2022/11/05 08:38:17;;;;;;;;;;;;;;;;;;5112222;28;1956;-46
2022/11/05 08:40:45;;;;;;;;;;;;;;;;;;5112280;28;1915;-46
2022/11/05 08:43:13;;;;;;;;;;;;;;;;;;5112281;28;1978;-47
2022/11/05 08:45:40;;;;;;;;;;;;;;;;;;5112202;28;2003;-46
2022/11/05 08:48:10;;;;;;;;;;;;;;;;;;5112423;28;1574;-47
2022/11/05 08:50:38;;;;;;;;;;;;;;;;;;5108065;28;2167;-49
2022/11/05 08:53:05;;;;;;;;;;;;;;;;;;5092039;28;1718;-48
2022/11/05 08:55:33;;;;;;;;;;;;;;;;;;5091519;28;1568;-45
2022/11/05 08:58:11;;;;;;;;;;;;;;;;;;5091902;28;2171;-46
2022/11/05 09:00:38;;;;;;;;;;;;;;;;;;5091820;28;1488;-46
2022/11/05 09:03:06;;;;;;;;;;;;;;;;;;5091825;28;2101;-50
2022/11/05 09:05:36;;;;;;;;;;;;;;;;;;5091547;28;1079;-46
2022/11/05 09:08:05;;;;;;;;;;;;;;;;;;5091487;28;1983;-47
2022/11/05 09:10:32;;;;;;;;;;;;;;;;;;5091700;28;1589;-44
2022/11/05 09:13:02;;;;;;;;;;;;;;;;;;5091543;28;1912;-44
2022/11/05 09:15:29;;;;;;;;;;;;;;;;;;5091259;28;1735;-50
2022/11/05 09:17:56;;;;;;;;;;;;;;;;;;5091453;28;2154;-52
2022/11/05 09:20:23;;;;;;;;;;;;;;;;;;5091182;28;2005;-48
2022/11/05 09:22:50;;;;;;;;;;;;;;;;;;5091350;28;1987;-50
2022/11/05 09:25:17;;;;;;;;;;;;;;;;;;5091774;28;2112;-49
2022/11/05 09:27:46;;;;;;;;;;;;;;;;;;5106984;28;2355;-48
2022/11/05 09:30:14;;;;;;;;;;;;;;;;;;5091371;28;1594;-43
2022/11/05 09:32:41;;;;;;;;;;;;;;;;;;5091374;28;1628;-45
2022/11/05 09:35:08;;;;;;;;;;;;;;;;;;5091333;28;2242;-45
2022/11/05 09:37:36;;;;;;;;;;;;;;;;;;5091341;28;1862;-45
2022/11/05 09:40:03;;;;;;;;;;;;;;;;;;5091241;28;2320;-47
2022/11/05 09:42:38;;;;;;;;;;;;;;;;;;5091098;28;2175;-49
2022/11/05 09:45:25;;;;;;;;;;;;;;;;;;5091058;28;1960;-48
2022/11/05 09:47:58;;;;;;;;;;;;;;;;;;5091426;28;2381;-48
2022/11/05 09:50:31;;;;;;;;;;;;;;;;;;5095432;28;2005;-46
2022/11/05 09:52:59;;;;;;;;;;;;;;;;;;5115583;28;1677;-45
2022/11/05 09:55:29;;;;;;;;;;;;;;;;;;5115788;28;2167;-48
2022/11/05 09:57:57;;;;;;;;;;;;;;;;;;5115714;28;1746;-47
2022/11/05 10:00:24;;;;;;;;;;;;;;;;;;5115557;28;1259;-46
2022/11/05 10:02:57;;;;;;;;;;;;;;;;;;5115278;27;1986;-44
2022/11/05 10:05:26;;;;;;;;;;;;;;;;;;5115241;28;2139;-48
2022/11/05 10:08:13;;;;;;;;;;;;;;;;;;5115423;28;1628;-47
2022/11/05 10:10:42;;;;;;;;;;;;;;;;;;5115688;27;1708;-48
2022/11/05 10:13:19;;;;;;;;;;;;;;;;;;5115604;28;1696;-49
2022/11/05 10:15:56;;;;;;;;;;;;;;;;;;5115316;28;1544;-48
2022/11/05 10:18:46;;;;;;;;;;;;;;;;;;5115173;28;2099;-45
2022/11/05 10:21:15;;;;;;;;;;;;;;;;;;5114822;28;1803;-46
2022/11/05 10:23:43;;;;;;;;;;;;;;;;;;5115142;28;1969;-49
2022/11/05 10:26:12;;;;;;;;;;;;;;;;;;5115079;28;1872;-48
2022/11/05 10:28:43;;;;;;;;;;;;;;;;;;5115421;28;1659;-47
2022/11/05 10:31:15;;;;;;;;;;;;;;;;;;5115067;28;1678;-47
2022/11/05 10:33:44;;;;;;;;;;;;;;;;;;5114957;27;2206;-48
2022/11/05 10:36:20;;;;;;;;;;;;;;;;;;5115239;28;1842;-49
2022/11/05 10:38:47;;;;;;;;;;;;;;;;;;5113526;28;2094;-48
2022/11/05 10:41:33;;;;;;;;;;;;;;;;;;5114908;28;2051;-48
2022/11/05 10:44:03;;;;;;;;;;;;;;;;;;5114423;28;1988;-44
2022/11/05 10:46:50;;;;;;;;;;;;;;;;;;5114512;28;1795;-49
2022/11/05 10:49:26;;;;;;;;;;;;;;;;;;5083450;28;2128;-47
2022/11/05 10:51:58;;;;;;;;;;;;;;;;;;5099289;28;2322;-45
2022/11/05 10:54:32;;;;;;;;;;;;;;;;;;5093963;28;2021;-48
2022/11/05 10:56:59;;;;;;;;;;;;;;;;;;5094081;28;1870;-50
2022/11/05 10:59:28;;;;;;;;;;;;;;;;;;5094088;28;1611;-47
2022/11/05 11:02:29;;;;;;;;;;;;;;;;;;5093846;28;1462;-46
2022/11/05 11:04:57;;;;;;;;;;;;;;;;;;5082308;28;1494;-47
2022/11/05 11:07:24;;;;;;;;;;;;;;;;;;5093840;28;1891;-46
2022/11/05 11:09:51;;;;;;;;;;;;;;;;;;5093978;28;1915;-46
2022/11/05 11:12:26;;;;;;;;;;;;;;;;;;5093925;28;1832;-46
2022/11/05 11:15:11;;;;;;;;;;;;;;;;;;5093765;28;2184;-45
2022/11/05 11:17:40;;;;;;;;;;;;;;;;;;5093794;28;1713;-46
2022/11/05 11:20:19;;;;;;;;;;;;;;;;;;5093711;28;1851;-47
2022/11/05 11:23:04;;;;;;;;;;;;;;;;;;5093391;28;1906;-47
2022/11/05 11:25:38;;;;;;;;;;;;;;;;;;5093180;28;1996;-50
2022/11/05 11:28:09;;;;;;;;;;;;;;;;;;5093393;28;1782;-48
2022/11/05 11:30:36;;;;;;;;;;;;;;;;;;5093448;28;1492;-46
2022/11/05 11:33:06;;;;;;;;;;;;;;;;;;5093227;28;2058;-46
2022/11/05 11:35:35;;;;;;;;;;;;;;;;;;5092285;28;2357;-47
2022/11/05 11:38:02;;;;;;;;;;;;;;;;;;5091831;28;2181;-49
2022/11/05 11:40:30;;;;;;;;;;;;;;;;;;5093400;28;1503;-47
2022/11/05 11:42:59;;;;;;;;;;;;;;;;;;5093162;28;1967;-51
2022/11/05 11:45:42;;;;;;;;;;;;;;;;;;5093390;28;1806;-46
2022/11/05 11:48:14;;;;;;;;;;;;;;;;;;5093234;28;2346;-45
2022/11/05 11:50:43;;;;;;;;;;;;;;;;;;5097717;28;2104;-48
2022/11/05 11:53:19;;;;;;;;;;;;;;;;;;5113169;28;2118;-45
2022/11/05 11:55:59;;;;;;;;;;;;;;;;;;5113755;28;1838;-47
2022/11/05 11:58:35;;;;;;;;;;;;;;;;;;5113347;28;1711;-45
2022/11/05 12:01:25;;;;;;;;;;;;;;;;;;5113414;28;2290;-46
2022/11/05 12:04:12;;;;;;;;;;;;;;;;;;5113146;28;2236;-46
2022/11/05 12:06:45;;;;;;;;;;;;;;;;;;5112826;28;2426;-47
2022/11/05 12:09:15;;;;;;;;;;;;;;;;;;5112975;28;1971;-49
2022/11/05 12:11:54;;;;;;;;;;;;;;;;;;5113106;28;1316;-48
2022/11/05 12:14:39;;;;;;;;;;;;;;;;;;5112395;28;1817;-43
2022/11/05 12:17:14;;;;;;;;;;;;;;;;;;5112823;27;1613;-48
2022/11/05 12:19:54;;;;;;;;;;;;;;;;;;5112788;28;1498;-47
2022/11/05 12:22:27;;;;;;;;;;;;;;;;;;5112906;28;1926;-46
2022/11/05 12:25:00;;;;;;;;;;;;;;;;;;5112876;28;2153;-46
2022/11/05 12:27:27;;;;;;;;;;;;;;;;;;5112787;28;1884;-47
2022/11/05 12:29:54;;;;;;;;;;;;;;;;;;5112422;28;1710;-46
2022/11/05 12:32:21;;;;;;;;;;;;;;;;;;5112805;28;2178;-47
2022/11/05 12:34:51;;;;;;;;;;;;;;;;;;5113007;28;2254;-45
2022/11/05 12:37:42;;;;;;;;;;;;;;;;;;5112693;28;1822;-50
2022/11/05 12:40:12;;;;;;;;;;;;;;;;;;5112031;28;2140;-45
2022/11/05 12:42:57;;;;;;;;;;;;;;;;;;5110314;28;1927;-48
2022/11/05 12:45:24;;;;;;;;;;;;;;;;;;5110103;28;1689;-49
2022/11/05 12:47:59;;;;;;;;;;;;;;;;;;5110429;28;2273;-50
2022/11/05 12:50:37;;;;;;;;;;;;;;;;;;5107937;28;2124;-47
2022/11/05 12:53:07;;;;;;;;;;;;;;;;;;5089414;28;1803;-48
2022/11/05 12:55:39;;;;;;;;;;;;;;;;;;5090098;28;1449;-47
2022/11/05 12:58:34;;;;;;;;;;;;;;;;;;5091494;28;1707;-47
2022/11/05 13:01:03;;;;;;;;;;;;;;;;;;5083787;28;2106;-46
2022/11/05 13:03:30;;;;;;;;;;;;;;;;;;5091768;28;1915;-50
2022/11/05 13:06:04;;;;;;;;;;;;;;;;;;5090750;28;1273;-47
2022/11/05 13:08:58;;;;;;;;;;;;;;;;;;5091661;28;1813;-46
2022/11/05 13:11:32;;;;;;;;;;;;;;;;;;5089249;28;1708;-45
2022/11/05 13:14:10;;;;;;;;;;;;;;;;;;5091525;28;1867;-48
2022/11/05 13:16:46;;;;;;;;;;;;;;;;;;5091711;28;1760;-48
2022/11/05 13:19:16;;;;;;;;;;;;;;;;;;5091513;28;2162;-48
2022/11/05 13:21:46;;;;;;;;;;;;;;;;;;5091416;28;2181;-48
2022/11/05 13:24:16;;;;;;;;;;;;;;;;;;5090281;28;1911;-45
2022/11/05 13:26:46;;;;;;;;;;;;;;;;;;5091048;28;1969;-46
2022/11/05 13:29:13;;;;;;;;;;;;;;;;;;5091237;28;2075;-48
2022/11/05 13:31:48;;;;;;;;;;;;;;;;;;5091308;28;1403;-46
2022/11/05 13:34:15;;;;;;;;;;;;;;;;;;5091100;28;2139;-46
2022/11/05 13:39:48;;;;;;;;;;;;;;;;;;5091357;28;2087;-47
2022/11/05 13:42:18;;;;;;;;;;;;;;;;;;5091040;28;2148;-43
2022/11/05 13:44:51;;;;;;;;;;;;;;;;;;5091291;28;1917;-48
2022/11/05 13:47:31;;;;;;;;;;;;;;;;;;5091216;28;2304;-47
2022/11/05 13:50:16;;;;;;;;;;;;;;;;;;5091186;28;2085;-46
2022/11/05 13:52:43;;;;;;;;;;;;;;;;;;5091209;28;1842;-48
2022/11/05 13:55:29;;;;;;;;;;;;;;;;;;5090846;28;1657;-47
2022/11/05 13:58:22;;;;;;;;;;;;;;;;;;5091260;28;2157;-47
2022/11/05 14:01:08;;;;;;;;;;;;;;;;;;5087746;28;1759;-48
2022/11/05 14:03:36;;;;;;;;;;;;;;;;;;5090733;28;1974;-47
2022/11/05 14:06:08;;;;;;;;;;;;;;;;;;5090715;28;1500;-47
2022/11/05 14:08:45;;;;;;;;;;;;;;;;;;5091057;28;1906;-47
2022/11/05 14:11:25;;;;;;;;;;;;;;;;;;5090928;28;2104;-49
2022/11/05 14:13:57;;;;;;;;;;;;;;;;;;5090701;28;2213;-47
2022/11/05 14:16:25;;;;;;;;;;;;;;;;;;5091005;28;1600;-48
2022/11/05 14:19:11;;;;;;;;;;;;;;;;;;5091012;28;1811;-50
2022/11/05 14:21:48;;;;;;;;;;;;;;;;;;5090783;28;1762;-48
2022/11/05 14:24:24;;;;;;;;;;;;;;;;;;5090677;28;1911;-47
2022/11/05 14:27:03;;;;;;;;;;;;;;;;;;5090678;28;1560;-47
2022/11/05 14:29:41;;;;;;;;;;;;;;;;;;5090940;28;2140;-43
2022/11/05 14:32:14;;;;;;;;;;;;;;;;;;5090978;28;2015;-47
2022/11/05 14:34:41;;;;;;;;;;;;;;;;;;5089312;28;1898;-45
2022/11/05 14:37:11;;;;;;;;;;;;;;;;;;5093557;28;1761;-46
2022/11/05 14:39:38;;;;;;;;;;;;;;;;;;5094693;28;1500;-51
2022/11/05 14:42:32;;;;;;;;;;;;;;;;;;5093883;28;2022;-46
2022/11/05 14:45:06;;;;;;;;;;;;;;;;;;5092404;28;2178;-47
2022/11/05 14:47:36;;;;;;;;;;;;;;;;;;5094133;28;1572;-47
2022/11/05 14:50:03;;;;;;;;;;;;;;;;;;5094287;28;2141;-48
2022/11/05 14:52:30;;;;;;;;;;;;;;;;;;5094537;28;2121;-48
2022/11/05 14:54:57;;;;;;;;;;;;;;;;;;5094354;28;1440;-48
2022/11/05 14:57:40;;;;;;;;;;;;;;;;;;5094324;28;2076;-47
2022/11/05 15:00:26;;;;;;;;;;;;;;;;;;5094081;28;1391;-48
2022/11/05 15:03:17;;;;;;;;;;;;;;;;;;5093933;28;1783;-46
2022/11/05 15:05:47;;;;;;;;;;;;;;;;;;5087996;28;1691;-49
2022/11/05 15:08:26;;;;;;;;;;;;;;;;;;5093791;28;1368;-45
2022/11/05 15:10:57;;;;;;;;;;;;;;;;;;5093813;28;2060;-47
2022/11/05 15:13:35;;;;;;;;;;;;;;;;;;5093972;28;2045;-47
2022/11/05 15:16:04;;;;;;;;;;;;;;;;;;5093850;28;1949;-48
2022/11/05 15:18:37;;;;;;;;;;;;;;;;;;5094103;28;1950;-47
2022/11/05 15:21:06;;;;;;;;;;;;;;;;;;5093792;28;1966;-47
2022/11/05 15:23:37;;;;;;;;;;;;;;;;;;5093671;28;2307;-46
2022/11/05 15:26:19;;;;;;;;;;;;;;;;;;5093549;28;1780;-48
2022/11/05 15:28:48;;;;;;;;;;;;;;;;;;5093638;28;1849;-46
2022/11/05 15:31:15;;;;;;;;;;;;;;;;;;5093432;28;1719;-47
2022/11/05 15:33:43;;;;;;;;;;;;;;;;;;5093177;28;1656;-47
2022/11/05 15:36:30;;;;;;;;;;;;;;;;;;5093305;28;1996;-47
2022/11/05 15:38:58;;;;;;;;;;;;;;;;;;5093316;28;1837;-46
2022/11/05 15:41:45;;;;;;;;;;;;;;;;;;5092912;28;1750;-47
2022/11/05 15:44:33;;;;;;;;;;;;;;;;;;5093046;28;2109;-47
2022/11/05 15:47:05;;;;;;;;;;;;;;;;;;5091272;28;1991;-45
2022/11/05 15:49:32;;;;;;;;;;;;;;;;;;5093142;28;1348;-45
2022/11/05 15:51:59;;;;;;;;;;;;;;;;;;5092944;28;1914;-48
2022/11/05 15:54:26;;;;;;;;;;;;;;;;;;5092832;28;1838;-47
2022/11/05 15:56:57;;;;;;;;;;;;;;;;;;5092839;28;1362;-49
2022/11/05 15:59:26;;;;;;;;;;;;;;;;;;5093070;28;2060;-47
2022/11/05 16:02:00;;;;;;;;;;;;;;;;;;5092752;28;2070;-45
2022/11/05 16:04:29;;;;;;;;;;;;;;;;;;5092345;28;1977;-48
2022/11/05 16:06:58;;;;;;;;;;;;;;;;;;5092525;28;1933;-47
2022/11/05 16:09:30;;;;;;;;;;;;;;;;;;5092922;28;1995;-45
2022/11/05 16:12:12;;;;;;;;;;;;;;;;;;5092888;28;1606;-46
2022/11/05 16:14:40;;;;;;;;;;;;;;;;;;5092478;28;2047;-44
2022/11/05 16:17:21;;;;;;;;;;;;;;;;;;5092467;28;1699;-50
2022/11/05 16:19:49;;;;;;;;;;;;;;;;;;5092578;28;1751;-47
2022/11/05 16:22:18;;;;;;;;;;;;;;;;;;5092687;28;1856;-48
2022/11/05 16:24:45;;;;;;;;;;;;;;;;;;5092132;28;1964;-45
2022/11/05 16:27:17;;;;;;;;;;;;;;;;;;5092218;28;1544;-48
2022/11/05 16:29:53;;;;;;;;;;;;;;;;;;5092149;28;1902;-45
2022/11/05 16:32:22;;;;;;;;;;;;;;;;;;5092134;28;2236;-49
2022/11/05 16:34:57;;;;;;;;;;;;;;;;;;5090799;28;1874;-51
2022/11/05 16:37:25;;;;;;;;;;;;;;;;;;5092066;28;1929;-45
2022/11/05 16:39:54;;;;;;;;;;;;;;;;;;5090841;28;2006;-46
2022/11/05 16:42:21;;;;;;;;;;;;;;;;;;5091967;28;1816;-48
2022/11/05 16:44:53;;;;;;;;;;;;;;;;;;5092075;28;2117;-50
2022/11/05 16:47:21;;;;;;;;;;;;;;;;;;5091777;28;1622;-49
2022/11/05 16:49:49;;;;;;;;;;;;;;;;;;5091701;28;1734;-43
2022/11/05 16:52:18;;;;;;;;;;;;;;;;;;5091800;28;1520;-49
2022/11/05 16:54:45;;;;;;;;;;;;;;;;;;5091850;28;1809;-49
2022/11/05 16:57:31;;;;;;;;;;;;;;;;;;5091841;28;1514;-47
2022/11/05 16:59:59;;;;;;;;;;;;;;;;;;5091745;28;1999;-48
2022/11/05 17:02:26;;;;;;;;;;;;;;;;;;5091666;28;2108;-50
2022/11/05 17:04:54;;;;;;;;;;;;;;;;;;5091430;28;2164;-48
2022/11/05 17:07:21;;;;;;;;;;;;;;;;;;5091570;28;1823;-48
2022/11/05 17:09:48;;;;;;;;;;;;;;;;;;5091701;28;1758;-46
2022/11/05 17:12:16;;;;;;;;;;;;;;;;;;5091637;28;1999;-48
2022/11/05 17:14:45;;;;;;;;;;;;;;;;;;5091838;28;2030;-48
2022/11/05 17:17:12;;;;;;;;;;;;;;;;;;5091282;28;1704;-50
2022/11/05 17:19:41;;;;;;;;;;;;;;;;;;5090695;28;1864;-47
2022/11/05 17:22:08;;;;;;;;;;;;;;;;;;5091143;28;1924;-49
2022/11/05 17:24:35;;;;;;;;;;;;;;;;;;5090155;28;2023;-48
2022/11/05 17:27:02;;;;;;;;;;;;;;;;;;5090410;28;1715;-47
2022/11/05 17:29:29;;;;;;;;;;;;;;;;;;5090867;28;1885;-47
2022/11/05 17:31:56;;;;;;;;;;;;;;;;;;5090483;28;1643;-47
2022/11/05 17:34:23;;;;;;;;;;;;;;;;;;5093432;28;1899;-46
2022/11/05 17:36:51;;;;;;;;;;;;;;;;;;5095072;28;1769;-46
2022/11/05 17:39:18;;;;;;;;;;;;;;;;;;5098699;28;2126;-49
2022/11/05 17:41:46;;;;;;;;;;;;;;;;;;5096330;28;1803;-52
2022/11/05 17:44:14;;;;;;;;;;;;;;;;;;5091382;28;2204;-48
2022/11/05 17:46:43;;;;;;;;;;;;;;;;;;5099872;28;2203;-47
2022/11/05 17:49:10;;;;;;;;;;;;;;;;;;5097818;28;1638;-47
2022/11/05 17:51:38;;;;;;;;;;;;;;;;;;5098838;28;1762;-47
2022/11/05 17:54:12;;;;;;;;;;;;;;;;;;5096633;28;2123;-51
2022/11/05 17:56:42;;;;;;;;;;;;;;;;;;5090772;28;1458;-47
2022/11/05 17:59:11;;;;;;;;;;;;;;;;;;5090722;28;1577;-48
2022/11/05 18:01:42;;;;;;;;;;;;;;;;;;5091028;28;2327;-45
2022/11/05 18:04:09;;;;;;;;;;;;;;;;;;5089886;28;1906;-47
2022/11/05 18:06:39;;;;;;;;;;;;;;;;;;5090790;28;1993;-47
2022/11/05 18:09:07;;;;;;;;;;;;;;;;;;5090947;28;1539;-48
2022/11/05 18:11:35;;;;;;;;;;;;;;;;;;5092773;28;2195;-50
2022/11/05 18:14:04;;;;;;;;;;;;;;;;;;5094460;28;1875;-51